sensor_id;sensor_type;location;lat;lon;timestamp;P1;durP1;ratioP1;P2;durP2;ratioP2
908;SDS011;441;51.192;6.788;2023-04-03T00:00:08;9.80;;;9.50;;
908;SDS011;441;51.192;6.788;2023-04-03T00:02:37;10.03;;;9.83;;
908;SDS011;441;51.192;6.788;2023-04-03T00:05:05;9.50;;;9.30;;
908;SDS011;441;51.192;6.788;2023-04-03T00:07:33;9.60;;;9.40;;
908;SDS011;441;51.192;6.788;2023-04-03T00:10:00;10.30;;;10.00;;
908;SDS011;441;51.192;6.788;2023-04-03T00:12:27;9.63;;;9.33;;
908;SDS011;441;51.192;6.788;2023-04-03T00:14:53;10.33;;;10.03;;
908;SDS011;441;51.192;6.788;2023-04-03T00:17:20;10.07;;;9.77;;
908;SDS011;441;51.192;6.788;2023-04-03T00:19:49;10.93;;;10.53;;
908;SDS011;441;51.192;6.788;2023-04-03T00:22:15;10.47;;;10.17;;
908;SDS011;441;51.192;6.788;2023-04-03T00:24:42;10.13;;;9.93;;
908;SDS011;441;51.192;6.788;2023-04-03T00:27:09;10.27;;;9.97;;
908;SDS011;441;51.192;6.788;2023-04-03T00:29:36;10.23;;;9.93;;
908;SDS011;441;51.192;6.788;2023-04-03T00:32:03;10.77;;;10.47;;
908;SDS011;441;51.192;6.788;2023-04-03T00:34:31;10.40;;;10.10;;
908;SDS011;441;51.192;6.788;2023-04-03T00:36:59;10.37;;;10.17;;
908;SDS011;441;51.192;6.788;2023-04-03T00:39:26;10.77;;;10.47;;
908;SDS011;441;51.192;6.788;2023-04-03T00:41:53;9.90;;;9.70;;
908;SDS011;441;51.192;6.788;2023-04-03T00:44:21;9.80;;;9.60;;
908;SDS011;441;51.192;6.788;2023-04-03T00:46:49;10.50;;;10.20;;
908;SDS011;441;51.192;6.788;2023-04-03T00:49:15;9.80;;;9.50;;
908;SDS011;441;51.192;6.788;2023-04-03T00:51:43;9.23;;;9.00;;
908;SDS011;441;51.192;6.788;2023-04-03T00:54:11;11.13;;;10.73;;
908;SDS011;441;51.192;6.788;2023-04-03T00:56:38;10.30;;;9.83;;
908;SDS011;441;51.192;6.788;2023-04-03T00:59:06;10.13;;;9.83;;
908;SDS011;441;51.192;6.788;2023-04-03T01:01:36;9.93;;;9.73;;
908;SDS011;441;51.192;6.788;2023-04-03T01:04:04;9.43;;;9.17;;
908;SDS011;441;51.192;6.788;2023-04-03T01:06:32;9.40;;;9.20;;
908;SDS011;441;51.192;6.788;2023-04-03T01:09:02;10.77;;;10.53;;
908;SDS011;441;51.192;6.788;2023-04-03T01:11:31;10.00;;;9.70;;
908;SDS011;441;51.192;6.788;2023-04-03T01:13:59;9.73;;;9.43;;
908;SDS011;441;51.192;6.788;2023-04-03T01:16:26;10.00;;;9.80;;
908;SDS011;441;51.192;6.788;2023-04-03T01:18:55;10.00;;;9.80;;
908;SDS011;441;51.192;6.788;2023-04-03T01:21:28;10.50;;;10.20;;
908;SDS011;441;51.192;6.788;2023-04-03T01:24:31;9.87;;;9.67;;
908;SDS011;441;51.192;6.788;2023-04-03T01:27:02;10.07;;;9.87;;
908;SDS011;441;51.192;6.788;2023-04-03T01:29:31;11.13;;;10.73;;
908;SDS011;441;51.192;6.788;2023-04-03T01:32:00;10.73;;;10.43;;
908;SDS011;441;51.192;6.788;2023-04-03T01:34:28;10.00;;;9.77;;
908;SDS011;441;51.192;6.788;2023-04-03T01:36:56;9.70;;;9.50;;
908;SDS011;441;51.192;6.788;2023-04-03T01:39:23;10.63;;;10.33;;
908;SDS011;441;51.192;6.788;2023-04-03T01:41:50;9.90;;;9.70;;
908;SDS011;441;51.192;6.788;2023-04-03T01:44:17;10.10;;;9.87;;
908;SDS011;441;51.192;6.788;2023-04-03T01:46:44;9.97;;;9.77;;
908;SDS011;441;51.192;6.788;2023-04-03T01:49:12;10.83;;;10.53;;
908;SDS011;441;51.192;6.788;2023-04-03T01:51:39;10.50;;;10.20;;
908;SDS011;441;51.192;6.788;2023-04-03T01:54:06;11.10;;;10.80;;
908;SDS011;441;51.192;6.788;2023-04-03T01:56:33;10.50;;;10.20;;
908;SDS011;441;51.192;6.788;2023-04-03T01:59:00;10.80;;;10.50;;
908;SDS011;441;51.192;6.788;2023-04-03T02:01:27;9.90;;;9.70;;
908;SDS011;441;51.192;6.788;2023-04-03T02:03:54;10.30;;;10.00;;
908;SDS011;441;51.192;6.788;2023-04-03T02:06:22;10.60;;;10.30;;
908;SDS011;441;51.192;6.788;2023-04-03T02:08:49;10.07;;;9.83;;
908;SDS011;441;51.192;6.788;2023-04-03T02:11:16;10.23;;;10.00;;
908;SDS011;441;51.192;6.788;2023-04-03T02:13:43;9.80;;;9.50;;
908;SDS011;441;51.192;6.788;2023-04-03T02:16:10;9.77;;;9.57;;
908;SDS011;441;51.192;6.788;2023-04-03T02:18:38;10.50;;;10.30;;
908;SDS011;441;51.192;6.788;2023-04-03T02:21:05;9.60;;;9.30;;
908;SDS011;441;51.192;6.788;2023-04-03T02:23:33;8.90;;;8.70;;
908;SDS011;441;51.192;6.788;2023-04-03T02:26:08;10.43;;;10.03;;
908;SDS011;441;51.192;6.788;2023-04-03T02:28:36;9.67;;;9.47;;
908;SDS011;441;51.192;6.788;2023-04-03T02:31:04;10.23;;;9.93;;
908;SDS011;441;51.192;6.788;2023-04-03T02:33:32;9.90;;;9.70;;
908;SDS011;441;51.192;6.788;2023-04-03T02:36:01;9.80;;;9.60;;
908;SDS011;441;51.192;6.788;2023-04-03T02:38:28;9.80;;;9.53;;
908;SDS011;441;51.192;6.788;2023-04-03T02:41:00;10.63;;;10.23;;
908;SDS011;441;51.192;6.788;2023-04-03T02:43:28;9.77;;;9.47;;
908;SDS011;441;51.192;6.788;2023-04-03T02:45:55;9.60;;;9.40;;
908;SDS011;441;51.192;6.788;2023-04-03T02:48:22;9.60;;;9.40;;
908;SDS011;441;51.192;6.788;2023-04-03T02:50:50;11.20;;;10.90;;
908;SDS011;441;51.192;6.788;2023-04-03T02:53:17;9.87;;;9.60;;
908;SDS011;441;51.192;6.788;2023-04-03T02:55:45;9.77;;;9.57;;
908;SDS011;441;51.192;6.788;2023-04-03T02:58:13;9.83;;;9.63;;
908;SDS011;441;51.192;6.788;2023-04-03T03:00:40;9.90;;;9.70;;
908;SDS011;441;51.192;6.788;2023-04-03T03:03:07;9.97;;;9.73;;
908;SDS011;441;51.192;6.788;2023-04-03T03:05:34;10.67;;;10.37;;
908;SDS011;441;51.192;6.788;2023-04-03T03:08:01;10.07;;;9.87;;
908;SDS011;441;51.192;6.788;2023-04-03T03:10:28;10.20;;;9.90;;
908;SDS011;441;51.192;6.788;2023-04-03T03:12:55;10.43;;;10.13;;
908;SDS011;441;51.192;6.788;2023-04-03T03:15:23;9.97;;;9.77;;
908;SDS011;441;51.192;6.788;2023-04-03T03:17:50;10.23;;;9.93;;
908;SDS011;441;51.192;6.788;2023-04-03T03:20:17;10.47;;;10.07;;
908;SDS011;441;51.192;6.788;2023-04-03T03:22:44;10.00;;;9.80;;
908;SDS011;441;51.192;6.788;2023-04-03T03:25:11;10.53;;;10.23;;
908;SDS011;441;51.192;6.788;2023-04-03T03:27:38;10.63;;;10.33;;
908;SDS011;441;51.192;6.788;2023-04-03T03:30:06;11.17;;;10.87;;
908;SDS011;441;51.192;6.788;2023-04-03T03:32:35;10.47;;;10.20;;
908;SDS011;441;51.192;6.788;2023-04-03T03:35:02;10.20;;;9.90;;
908;SDS011;441;51.192;6.788;2023-04-03T03:37:29;9.50;;;9.30;;
908;SDS011;441;51.192;6.788;2023-04-03T03:39:56;10.83;;;10.43;;
908;SDS011;441;51.192;6.788;2023-04-03T03:42:23;10.93;;;10.63;;
908;SDS011;441;51.192;6.788;2023-04-03T03:44:50;10.60;;;10.30;;
908;SDS011;441;51.192;6.788;2023-04-03T03:47:17;10.63;;;10.33;;
908;SDS011;441;51.192;6.788;2023-04-03T03:49:45;10.10;;;9.80;;
908;SDS011;441;51.192;6.788;2023-04-03T03:52:12;9.67;;;9.47;;
908;SDS011;441;51.192;6.788;2023-04-03T03:54:39;10.03;;;9.83;;
908;SDS011;441;51.192;6.788;2023-04-03T03:57:06;11.03;;;10.80;;
908;SDS011;441;51.192;6.788;2023-04-03T03:59:33;10.30;;;10.10;;
908;SDS011;441;51.192;6.788;2023-04-03T04:01:59;10.57;;;10.27;;
908;SDS011;441;51.192;6.788;2023-04-03T04:04:27;9.60;;;9.40;;
908;SDS011;441;51.192;6.788;2023-04-03T04:06:55;10.70;;;10.43;;
908;SDS011;441;51.192;6.788;2023-04-03T04:09:22;10.27;;;10.00;;
908;SDS011;441;51.192;6.788;2023-04-03T04:11:49;11.07;;;10.77;;
908;SDS011;441;51.192;6.788;2023-04-03T04:14:16;10.23;;;9.93;;
908;SDS011;441;51.192;6.788;2023-04-03T04:16:43;10.80;;;10.50;;
908;SDS011;441;51.192;6.788;2023-04-03T04:19:10;10.87;;;10.47;;
908;SDS011;441;51.192;6.788;2023-04-03T04:21:37;10.30;;;10.10;;
908;SDS011;441;51.192;6.788;2023-04-03T04:24:06;12.73;;;11.83;;
908;SDS011;441;51.192;6.788;2023-04-03T04:26:33;13.27;;;12.17;;
908;SDS011;441;51.192;6.788;2023-04-03T04:29:00;12.80;;;12.20;;
908;SDS011;441;51.192;6.788;2023-04-03T04:31:27;12.73;;;11.80;;
908;SDS011;441;51.192;6.788;2023-04-03T04:33:54;11.87;;;11.00;;
908;SDS011;441;51.192;6.788;2023-04-03T04:36:21;12.40;;;11.60;;
908;SDS011;441;51.192;6.788;2023-04-03T04:38:48;13.00;;;11.80;;
908;SDS011;441;51.192;6.788;2023-04-03T04:41:19;12.77;;;12.07;;
908;SDS011;441;51.192;6.788;2023-04-03T04:43:47;13.97;;;13.03;;
908;SDS011;441;51.192;6.788;2023-04-03T04:46:14;13.40;;;12.53;;
908;SDS011;441;51.192;6.788;2023-04-03T04:48:41;14.70;;;13.27;;
908;SDS011;441;51.192;6.788;2023-04-03T04:51:08;18.13;;;12.57;;
908;SDS011;441;51.192;6.788;2023-04-03T04:53:35;14.40;;;13.30;;
908;SDS011;441;51.192;6.788;2023-04-03T04:56:02;14.23;;;13.20;;
908;SDS011;441;51.192;6.788;2023-04-03T04:58:31;13.70;;;12.80;;
908;SDS011;441;51.192;6.788;2023-04-03T05:00:58;15.37;;;14.10;;
908;SDS011;441;51.192;6.788;2023-04-03T05:03:26;13.80;;;12.93;;
908;SDS011;441;51.192;6.788;2023-04-03T05:05:53;14.37;;;13.53;;
908;SDS011;441;51.192;6.788;2023-04-03T05:08:20;13.83;;;12.90;;
908;SDS011;441;51.192;6.788;2023-04-03T05:10:47;13.23;;;12.53;;
908;SDS011;441;51.192;6.788;2023-04-03T05:13:14;13.57;;;12.77;;
908;SDS011;441;51.192;6.788;2023-04-03T05:15:43;13.90;;;13.20;;
908;SDS011;441;51.192;6.788;2023-04-03T05:18:11;14.63;;;13.93;;
908;SDS011;441;51.192;6.788;2023-04-03T05:20:38;14.03;;;13.03;;
908;SDS011;441;51.192;6.788;2023-04-03T05:23:05;13.20;;;12.43;;
908;SDS011;441;51.192;6.788;2023-04-03T05:25:32;13.10;;;12.37;;
908;SDS011;441;51.192;6.788;2023-04-03T05:27:58;12.73;;;12.07;;
908;SDS011;441;51.192;6.788;2023-04-03T05:30:25;13.53;;;12.53;;
908;SDS011;441;51.192;6.788;2023-04-03T05:32:53;12.10;;;11.20;;
908;SDS011;441;51.192;6.788;2023-04-03T05:35:20;11.90;;;10.93;;
908;SDS011;441;51.192;6.788;2023-04-03T05:37:47;11.67;;;11.07;;
908;SDS011;441;51.192;6.788;2023-04-03T05:40:15;11.83;;;11.23;;
908;SDS011;441;51.192;6.788;2023-04-03T05:42:42;12.33;;;11.63;;
908;SDS011;441;51.192;6.788;2023-04-03T05:45:09;11.80;;;11.30;;
908;SDS011;441;51.192;6.788;2023-04-03T05:47:36;12.53;;;11.90;;
908;SDS011;441;51.192;6.788;2023-04-03T05:50:05;11.97;;;11.47;;
908;SDS011;441;51.192;6.788;2023-04-03T05:52:34;12.77;;;11.97;;
908;SDS011;441;51.192;6.788;2023-04-03T05:55:04;12.60;;;12.03;;
908;SDS011;441;51.192;6.788;2023-04-03T05:57:31;13.00;;;12.60;;
908;SDS011;441;51.192;6.788;2023-04-03T05:59:58;13.17;;;12.47;;
908;SDS011;441;51.192;6.788;2023-04-03T06:02:25;11.90;;;11.37;;
908;SDS011;441;51.192;6.788;2023-04-03T06:04:52;13.10;;;12.60;;
908;SDS011;441;51.192;6.788;2023-04-03T06:07:21;13.40;;;12.90;;
908;SDS011;441;51.192;6.788;2023-04-03T06:09:53;15.13;;;14.53;;
908;SDS011;441;51.192;6.788;2023-04-03T06:12:20;13.43;;;12.73;;
908;SDS011;441;51.192;6.788;2023-04-03T06:14:48;12.40;;;11.90;;
908;SDS011;441;51.192;6.788;2023-04-03T06:17:15;12.90;;;12.50;;
908;SDS011;441;51.192;6.788;2023-04-03T06:19:43;13.93;;;13.33;;
908;SDS011;441;51.192;6.788;2023-04-03T06:22:09;14.40;;;13.60;;
908;SDS011;441;51.192;6.788;2023-04-03T06:24:39;14.97;;;14.17;;
908;SDS011;441;51.192;6.788;2023-04-03T06:27:06;14.50;;;13.80;;
908;SDS011;441;51.192;6.788;2023-04-03T06:29:33;12.80;;;12.17;;
908;SDS011;441;51.192;6.788;2023-04-03T06:32:00;12.80;;;12.30;;
908;SDS011;441;51.192;6.788;2023-04-03T06:34:27;12.70;;;12.30;;
908;SDS011;441;51.192;6.788;2023-04-03T06:36:54;14.03;;;13.17;;
908;SDS011;441;51.192;6.788;2023-04-03T06:39:21;12.77;;;12.27;;
908;SDS011;441;51.192;6.788;2023-04-03T06:41:50;13.20;;;12.77;;
908;SDS011;441;51.192;6.788;2023-04-03T06:44:17;13.80;;;13.30;;
908;SDS011;441;51.192;6.788;2023-04-03T06:46:45;12.70;;;12.10;;
908;SDS011;441;51.192;6.788;2023-04-03T06:49:12;12.90;;;12.50;;
908;SDS011;441;51.192;6.788;2023-04-03T06:51:40;12.80;;;12.30;;
908;SDS011;441;51.192;6.788;2023-04-03T06:54:07;12.83;;;12.30;;
908;SDS011;441;51.192;6.788;2023-04-03T06:56:34;13.07;;;12.57;;
908;SDS011;441;51.192;6.788;2023-04-03T06:59:03;13.47;;;12.97;;
908;SDS011;441;51.192;6.788;2023-04-03T07:01:30;12.70;;;12.30;;
908;SDS011;441;51.192;6.788;2023-04-03T07:03:57;12.57;;;11.97;;
908;SDS011;441;51.192;6.788;2023-04-03T07:06:24;11.97;;;11.57;;
908;SDS011;441;51.192;6.788;2023-04-03T07:08:52;13.13;;;12.73;;
908;SDS011;441;51.192;6.788;2023-04-03T07:11:20;11.97;;;11.57;;
908;SDS011;441;51.192;6.788;2023-04-03T07:13:47;12.20;;;11.80;;
908;SDS011;441;51.192;6.788;2023-04-03T07:16:15;12.40;;;11.90;;
908;SDS011;441;51.192;6.788;2023-04-03T07:18:43;12.37;;;11.97;;
908;SDS011;441;51.192;6.788;2023-04-03T07:21:09;12.47;;;11.93;;
908;SDS011;441;51.192;6.788;2023-04-03T07:23:36;12.63;;;12.23;;
908;SDS011;441;51.192;6.788;2023-04-03T07:26:03;11.40;;;11.10;;
908;SDS011;441;51.192;6.788;2023-04-03T07:28:31;12.30;;;11.70;;
908;SDS011;441;51.192;6.788;2023-04-03T07:30:59;11.40;;;11.10;;
908;SDS011;441;51.192;6.788;2023-04-03T07:33:29;12.03;;;11.63;;
908;SDS011;441;51.192;6.788;2023-04-03T07:35:56;12.27;;;11.80;;
908;SDS011;441;51.192;6.788;2023-04-03T07:38:23;12.00;;;11.70;;
908;SDS011;441;51.192;6.788;2023-04-03T07:40:51;11.53;;;11.23;;
908;SDS011;441;51.192;6.788;2023-04-03T07:43:19;11.77;;;11.47;;
908;SDS011;441;51.192;6.788;2023-04-03T07:45:46;12.13;;;11.73;;
908;SDS011;441;51.192;6.788;2023-04-03T07:48:16;11.90;;;11.50;;
908;SDS011;441;51.192;6.788;2023-04-03T07:50:44;12.17;;;11.77;;
908;SDS011;441;51.192;6.788;2023-04-03T07:53:11;11.70;;;11.40;;
908;SDS011;441;51.192;6.788;2023-04-03T07:55:38;12.23;;;11.83;;
908;SDS011;441;51.192;6.788;2023-04-03T07:58:08;12.13;;;11.70;;
908;SDS011;441;51.192;6.788;2023-04-03T08:00:36;12.00;;;11.70;;
908;SDS011;441;51.192;6.788;2023-04-03T08:03:04;11.30;;;11.00;;
908;SDS011;441;51.192;6.788;2023-04-03T08:05:34;12.10;;;11.77;;
908;SDS011;441;51.192;6.788;2023-04-03T08:08:04;12.53;;;11.50;;
908;SDS011;441;51.192;6.788;2023-04-03T08:10:31;12.70;;;12.30;;
908;SDS011;441;51.192;6.788;2023-04-03T08:12:59;11.93;;;11.63;;
908;SDS011;441;51.192;6.788;2023-04-03T08:15:26;12.80;;;12.30;;
908;SDS011;441;51.192;6.788;2023-04-03T08:17:53;12.13;;;11.77;;
908;SDS011;441;51.192;6.788;2023-04-03T08:20:20;12.00;;;11.60;;
908;SDS011;441;51.192;6.788;2023-04-03T08:22:47;12.10;;;11.80;;
908;SDS011;441;51.192;6.788;2023-04-03T08:25:16;11.80;;;11.40;;
908;SDS011;441;51.192;6.788;2023-04-03T08:27:43;11.13;;;10.83;;
908;SDS011;441;51.192;6.788;2023-04-03T08:30:11;10.90;;;10.60;;
908;SDS011;441;51.192;6.788;2023-04-03T08:32:38;11.80;;;11.40;;
908;SDS011;441;51.192;6.788;2023-04-03T08:35:07;11.20;;;10.90;;
908;SDS011;441;51.192;6.788;2023-04-03T08:37:34;11.47;;;11.13;;
908;SDS011;441;51.192;6.788;2023-04-03T08:40:02;10.93;;;10.60;;
908;SDS011;441;51.192;6.788;2023-04-03T08:42:35;11.00;;;10.70;;
908;SDS011;441;51.192;6.788;2023-04-03T08:45:09;11.10;;;10.73;;
908;SDS011;441;51.192;6.788;2023-04-03T08:47:43;11.20;;;10.90;;
908;SDS011;441;51.192;6.788;2023-04-03T08:50:13;11.13;;;10.83;;
908;SDS011;441;51.192;6.788;2023-04-03T08:52:44;11.07;;;10.67;;
908;SDS011;441;51.192;6.788;2023-04-03T08:55:16;11.20;;;10.80;;
908;SDS011;441;51.192;6.788;2023-04-03T08:57:50;12.03;;;11.73;;
908;SDS011;441;51.192;6.788;2023-04-03T09:00:24;10.93;;;10.53;;
908;SDS011;441;51.192;6.788;2023-04-03T09:02:53;11.10;;;10.80;;
908;SDS011;441;51.192;6.788;2023-04-03T09:05:26;10.77;;;10.47;;
908;SDS011;441;51.192;6.788;2023-04-03T09:08:02;11.53;;;11.23;;
908;SDS011;441;51.192;6.788;2023-04-03T09:10:34;11.37;;;10.97;;
908;SDS011;441;51.192;6.788;2023-04-03T09:13:05;10.50;;;10.20;;
908;SDS011;441;51.192;6.788;2023-04-03T09:15:37;9.57;;;9.37;;
908;SDS011;441;51.192;6.788;2023-04-03T09:18:05;10.00;;;9.70;;
908;SDS011;441;51.192;6.788;2023-04-03T09:20:44;10.80;;;10.50;;
908;SDS011;441;51.192;6.788;2023-04-03T09:23:18;10.87;;;10.27;;
908;SDS011;441;51.192;6.788;2023-04-03T09:25:49;10.70;;;10.40;;
908;SDS011;441;51.192;6.788;2023-04-03T09:28:20;10.83;;;10.33;;
908;SDS011;441;51.192;6.788;2023-04-03T09:30:47;10.50;;;10.00;;
908;SDS011;441;51.192;6.788;2023-04-03T09:33:14;11.20;;;10.90;;
908;SDS011;441;51.192;6.788;2023-04-03T09:35:43;10.87;;;10.50;;
908;SDS011;441;51.192;6.788;2023-04-03T09:38:18;10.73;;;10.43;;
908;SDS011;441;51.192;6.788;2023-04-03T09:40:46;11.50;;;11.17;;
908;SDS011;441;51.192;6.788;2023-04-03T09:43:29;10.70;;;10.40;;
908;SDS011;441;51.192;6.788;2023-04-03T09:46:15;10.77;;;10.57;;
908;SDS011;441;51.192;6.788;2023-04-03T09:48:56;11.50;;;11.10;;
908;SDS011;441;51.192;6.788;2023-04-03T09:51:24;11.17;;;10.87;;
908;SDS011;441;51.192;6.788;2023-04-03T09:53:53;11.00;;;10.73;;
908;SDS011;441;51.192;6.788;2023-04-03T09:56:22;11.50;;;11.20;;
908;SDS011;441;51.192;6.788;2023-04-03T09:59:02;12.00;;;11.30;;
908;SDS011;441;51.192;6.788;2023-04-03T10:01:35;10.13;;;9.93;;
908;SDS011;441;51.192;6.788;2023-04-03T10:04:07;11.77;;;11.10;;
908;SDS011;441;51.192;6.788;2023-04-03T10:06:36;10.67;;;10.37;;
908;SDS011;441;51.192;6.788;2023-04-03T10:09:14;11.33;;;11.00;;
908;SDS011;441;51.192;6.788;2023-04-03T10:11:58;10.73;;;10.43;;
908;SDS011;441;51.192;6.788;2023-04-03T10:14:31;10.90;;;10.60;;
908;SDS011;441;51.192;6.788;2023-04-03T10:17:09;11.33;;;11.03;;
908;SDS011;441;51.192;6.788;2023-04-03T10:19:44;10.23;;;10.03;;
908;SDS011;441;51.192;6.788;2023-04-03T10:22:19;10.57;;;10.37;;
908;SDS011;441;51.192;6.788;2023-04-03T10:24:50;10.53;;;10.20;;
908;SDS011;441;51.192;6.788;2023-04-03T10:27:24;10.87;;;10.57;;
908;SDS011;441;51.192;6.788;2023-04-03T10:30:01;10.23;;;10.03;;
908;SDS011;441;51.192;6.788;2023-04-03T10:32:41;9.93;;;9.73;;
908;SDS011;441;51.192;6.788;2023-04-03T10:35:18;10.37;;;10.17;;
908;SDS011;441;51.192;6.788;2023-04-03T10:38:00;10.70;;;10.50;;
908;SDS011;441;51.192;6.788;2023-04-03T10:40:34;11.00;;;10.70;;
908;SDS011;441;51.192;6.788;2023-04-03T10:43:09;10.60;;;10.30;;
908;SDS011;441;51.192;6.788;2023-04-03T10:45:51;10.50;;;10.00;;
908;SDS011;441;51.192;6.788;2023-04-03T10:48:26;10.67;;;10.37;;
908;SDS011;441;51.192;6.788;2023-04-03T10:51:04;11.07;;;10.87;;
908;SDS011;441;51.192;6.788;2023-04-03T10:53:39;10.60;;;10.30;;
908;SDS011;441;51.192;6.788;2023-04-03T10:56:11;10.60;;;10.20;;
908;SDS011;441;51.192;6.788;2023-04-03T10:58:45;10.50;;;10.30;;
908;SDS011;441;51.192;6.788;2023-04-03T11:01:21;10.67;;;10.37;;
908;SDS011;441;51.192;6.788;2023-04-03T11:03:54;10.40;;;10.20;;
908;SDS011;441;51.192;6.788;2023-04-03T11:06:24;11.07;;;10.40;;
908;SDS011;441;51.192;6.788;2023-04-03T11:08:55;9.97;;;9.67;;
908;SDS011;441;51.192;6.788;2023-04-03T11:11:29;10.37;;;10.17;;
908;SDS011;441;51.192;6.788;2023-04-03T11:14:00;10.07;;;9.87;;
908;SDS011;441;51.192;6.788;2023-04-03T11:16:31;10.67;;;10.47;;
908;SDS011;441;51.192;6.788;2023-04-03T11:19:03;10.40;;;10.20;;
908;SDS011;441;51.192;6.788;2023-04-03T11:21:38;10.93;;;10.63;;
908;SDS011;441;51.192;6.788;2023-04-03T11:24:14;10.60;;;10.40;;
908;SDS011;441;51.192;6.788;2023-04-03T11:26:46;10.83;;;10.53;;
908;SDS011;441;51.192;6.788;2023-04-03T11:29:18;10.40;;;10.20;;
908;SDS011;441;51.192;6.788;2023-04-03T11:31:56;10.63;;;10.33;;
908;SDS011;441;51.192;6.788;2023-04-03T11:34:32;9.93;;;9.73;;
908;SDS011;441;51.192;6.788;2023-04-03T11:37:05;10.13;;;9.93;;
908;SDS011;441;51.192;6.788;2023-04-03T11:39:39;10.90;;;10.60;;
908;SDS011;441;51.192;6.788;2023-04-03T11:42:13;10.37;;;10.17;;
908;SDS011;441;51.192;6.788;2023-04-03T11:44:42;10.70;;;10.50;;
908;SDS011;441;51.192;6.788;2023-04-03T11:47:11;10.87;;;10.57;;
908;SDS011;441;51.192;6.788;2023-04-03T11:50:01;11.00;;;10.80;;
908;SDS011;441;51.192;6.788;2023-04-03T11:58:19;10.63;;;10.33;;
908;SDS011;441;51.192;6.788;2023-04-03T12:01:03;9.90;;;9.70;;
908;SDS011;441;51.192;6.788;2023-04-03T12:12:57;10.30;;;10.10;;
908;SDS011;441;51.192;6.788;2023-04-03T12:24:25;10.47;;;10.27;;
908;SDS011;441;51.192;6.788;2023-04-03T12:27:02;9.50;;;9.30;;
908;SDS011;441;51.192;6.788;2023-04-03T12:29:37;10.80;;;10.50;;
908;SDS011;441;51.192;6.788;2023-04-03T12:32:11;9.90;;;9.70;;
908;SDS011;441;51.192;6.788;2023-04-03T12:34:55;9.80;;;9.60;;
908;SDS011;441;51.192;6.788;2023-04-03T12:37:44;9.87;;;9.67;;
908;SDS011;441;51.192;6.788;2023-04-03T12:40:31;9.33;;;9.13;;
908;SDS011;441;51.192;6.788;2023-04-03T12:43:17;9.80;;;9.60;;
908;SDS011;441;51.192;6.788;2023-04-03T12:45:56;10.30;;;10.00;;
908;SDS011;441;51.192;6.788;2023-04-03T12:48:30;9.40;;;9.20;;
908;SDS011;441;51.192;6.788;2023-04-03T12:51:00;10.17;;;9.80;;
908;SDS011;441;51.192;6.788;2023-04-03T12:53:29;10.03;;;9.83;;
908;SDS011;441;51.192;6.788;2023-04-03T12:58:50;9.40;;;9.20;;
908;SDS011;441;51.192;6.788;2023-04-03T13:01:18;9.50;;;9.30;;
908;SDS011;441;51.192;6.788;2023-04-03T13:03:49;9.67;;;9.37;;
908;SDS011;441;51.192;6.788;2023-04-03T13:06:20;9.60;;;9.40;;
908;SDS011;441;51.192;6.788;2023-04-03T13:08:49;9.67;;;9.47;;
908;SDS011;441;51.192;6.788;2023-04-03T13:11:16;9.40;;;9.20;;
908;SDS011;441;51.192;6.788;2023-04-03T13:13:58;10.20;;;9.90;;
908;SDS011;441;51.192;6.788;2023-04-03T13:16:26;9.63;;;9.43;;
908;SDS011;441;51.192;6.788;2023-04-03T13:18:53;10.20;;;10.00;;
908;SDS011;441;51.192;6.788;2023-04-03T13:21:21;10.47;;;10.17;;
908;SDS011;441;51.192;6.788;2023-04-03T13:23:52;9.80;;;9.60;;
908;SDS011;441;51.192;6.788;2023-04-03T13:26:23;9.73;;;9.53;;
908;SDS011;441;51.192;6.788;2023-04-03T13:28:52;9.60;;;9.40;;
908;SDS011;441;51.192;6.788;2023-04-03T13:31:25;9.90;;;9.70;;
908;SDS011;441;51.192;6.788;2023-04-03T13:33:56;9.80;;;9.60;;
908;SDS011;441;51.192;6.788;2023-04-03T13:36:30;9.40;;;9.20;;
908;SDS011;441;51.192;6.788;2023-04-03T13:38:59;9.90;;;9.70;;
908;SDS011;441;51.192;6.788;2023-04-03T13:41:30;9.67;;;9.47;;
908;SDS011;441;51.192;6.788;2023-04-03T13:47:00;10.00;;;9.80;;
908;SDS011;441;51.192;6.788;2023-04-03T13:49:43;10.07;;;9.87;;
908;SDS011;441;51.192;6.788;2023-04-03T13:52:21;10.00;;;9.80;;
908;SDS011;441;51.192;6.788;2023-04-03T13:54:51;10.23;;;10.03;;
908;SDS011;441;51.192;6.788;2023-04-03T13:57:21;9.87;;;9.67;;
908;SDS011;441;51.192;6.788;2023-04-03T13:59:48;9.40;;;9.20;;
908;SDS011;441;51.192;6.788;2023-04-03T14:02:18;10.27;;;10.07;;
908;SDS011;441;51.192;6.788;2023-04-03T14:04:50;9.90;;;9.60;;
908;SDS011;441;51.192;6.788;2023-04-03T14:07:21;10.40;;;10.20;;
908;SDS011;441;51.192;6.788;2023-04-03T14:09:48;10.40;;;10.03;;
908;SDS011;441;51.192;6.788;2023-04-03T14:12:17;10.30;;;10.10;;
908;SDS011;441;51.192;6.788;2023-04-03T14:14:47;10.13;;;9.83;;
908;SDS011;441;51.192;6.788;2023-04-03T14:17:16;10.10;;;9.90;;
908;SDS011;441;51.192;6.788;2023-04-03T14:19:46;18.50;;;18.00;;
908;SDS011;441;51.192;6.788;2023-04-03T14:22:15;17.90;;;17.40;;
908;SDS011;441;51.192;6.788;2023-04-03T14:24:47;17.73;;;17.20;;
908;SDS011;441;51.192;6.788;2023-04-03T14:27:18;17.20;;;16.70;;
908;SDS011;441;51.192;6.788;2023-04-03T14:29:46;17.80;;;17.30;;
908;SDS011;441;51.192;6.788;2023-04-03T14:32:15;19.33;;;18.67;;
908;SDS011;441;51.192;6.788;2023-04-03T14:34:45;17.80;;;17.30;;
908;SDS011;441;51.192;6.788;2023-04-03T14:37:13;19.20;;;18.60;;
908;SDS011;441;51.192;6.788;2023-04-03T14:39:43;19.03;;;18.43;;
908;SDS011;441;51.192;6.788;2023-04-03T14:42:12;19.37;;;18.23;;
908;SDS011;441;51.192;6.788;2023-04-03T14:44:39;18.80;;;18.30;;
908;SDS011;441;51.192;6.788;2023-04-03T14:47:08;20.00;;;19.40;;
908;SDS011;441;51.192;6.788;2023-04-03T14:49:37;17.90;;;17.20;;
908;SDS011;441;51.192;6.788;2023-04-03T14:52:06;18.10;;;17.60;;
908;SDS011;441;51.192;6.788;2023-04-03T14:54:42;18.23;;;17.73;;
908;SDS011;441;51.192;6.788;2023-04-03T14:57:09;18.90;;;18.00;;
908;SDS011;441;51.192;6.788;2023-04-03T14:59:40;11.07;;;10.57;;
908;SDS011;441;51.192;6.788;2023-04-03T15:02:13;9.80;;;9.40;;
908;SDS011;441;51.192;6.788;2023-04-03T15:04:50;15.90;;;15.40;;
908;SDS011;441;51.192;6.788;2023-04-03T15:07:19;9.97;;;9.77;;
908;SDS011;441;51.192;6.788;2023-04-03T15:09:46;10.30;;;9.80;;
908;SDS011;441;51.192;6.788;2023-04-03T15:12:13;9.97;;;9.67;;
908;SDS011;441;51.192;6.788;2023-04-03T15:14:39;10.80;;;10.50;;
908;SDS011;441;51.192;6.788;2023-04-03T15:17:08;10.13;;;9.80;;
908;SDS011;441;51.192;6.788;2023-04-03T15:19:41;10.27;;;9.97;;
908;SDS011;441;51.192;6.788;2023-04-03T15:22:08;11.03;;;10.43;;
908;SDS011;441;51.192;6.788;2023-04-03T15:24:41;8.83;;;8.63;;
908;SDS011;441;51.192;6.788;2023-04-03T15:27:08;8.93;;;8.73;;
908;SDS011;441;51.192;6.788;2023-04-03T15:29:36;9.13;;;8.83;;
908;SDS011;441;51.192;6.788;2023-04-03T15:32:03;9.00;;;8.80;;
908;SDS011;441;51.192;6.788;2023-04-03T15:34:30;8.70;;;8.50;;
908;SDS011;441;51.192;6.788;2023-04-03T15:36:57;8.80;;;8.60;;
908;SDS011;441;51.192;6.788;2023-04-03T15:39:24;9.17;;;8.97;;
908;SDS011;441;51.192;6.788;2023-04-03T15:41:53;9.00;;;8.80;;
908;SDS011;441;51.192;6.788;2023-04-03T15:44:21;8.20;;;8.00;;
908;SDS011;441;51.192;6.788;2023-04-03T15:46:48;9.07;;;8.87;;
908;SDS011;441;51.192;6.788;2023-04-03T15:49:16;9.10;;;8.90;;
908;SDS011;441;51.192;6.788;2023-04-03T15:51:43;9.07;;;8.87;;
908;SDS011;441;51.192;6.788;2023-04-03T15:54:10;9.47;;;9.23;;
908;SDS011;441;51.192;6.788;2023-04-03T15:56:38;8.97;;;8.73;;
908;SDS011;441;51.192;6.788;2023-04-03T15:59:06;8.63;;;8.33;;
908;SDS011;441;51.192;6.788;2023-04-03T16:01:33;9.40;;;9.20;;
908;SDS011;441;51.192;6.788;2023-04-03T16:04:00;8.30;;;8.10;;
908;SDS011;441;51.192;6.788;2023-04-03T16:06:27;8.83;;;8.50;;
908;SDS011;441;51.192;6.788;2023-04-03T16:08:55;9.03;;;8.73;;